Empire, Nevada
Current Conditions -  °F | °C
As of 1:53 AM on Friday 31 Oct 2014 (Local Time) from KLOL Reporting Station
Clear Clear  
Wind Chill:   Ceiling: Unl
Heat Index:   Visibility: 10mi
Dew Point: -7°   Wind: 5mph
Humidity: 45%   Direction: 50°NE
Pressure: 29.89"   Gusts: NA
Location:  40.58°N, 119.34°W
Report Text: KLOL 310853Z AUTO 05004KT 10SM CLR 04/M07 A2989 RMK AO2 SLP110 T00441067 57008
Loading
Personal Weather Stations






























Interactive Weather Map
Tropical Storm Tracking
New forecast layout! Learn more

10-Day Weather Forecast

Advertisements
Track Severe Weather on mobile